sensor_id;sensor_type;location;lat;lon;timestamp;P1;durP1;ratioP1;P2;durP2;ratioP2
70049;SDS011;57391;51.306;22.680;2022-10-22T00:00:01;9.20;;;4.40;;
70049;SDS011;57391;51.306;22.680;2022-10-22T00:02:28;10.60;;;4.70;;
70049;SDS011;57391;51.306;22.680;2022-10-22T00:04:55;11.00;;;5.10;;
70049;SDS011;57391;51.306;22.680;2022-10-22T00:07:22;10.00;;;4.20;;
70049;SDS011;57391;51.306;22.680;2022-10-22T00:09:49;9.60;;;4.60;;
70049;SDS011;57391;51.306;22.680;2022-10-22T00:12:17;11.10;;;4.80;;
70049;SDS011;57391;51.306;22.680;2022-10-22T00:14:45;9.90;;;4.70;;
70049;SDS011;57391;51.306;22.680;2022-10-22T00:17:13;9.70;;;4.90;;
70049;SDS011;57391;51.306;22.680;2022-10-22T00:19:40;10.30;;;4.40;;
70049;SDS011;57391;51.306;22.680;2022-10-22T00:22:08;9.50;;;4.70;;
70049;SDS011;57391;51.306;22.680;2022-10-22T00:24:38;10.50;;;4.70;;
70049;SDS011;57391;51.306;22.680;2022-10-22T00:27:07;9.60;;;4.90;;
70049;SDS011;57391;51.306;22.680;2022-10-22T00:29:35;11.50;;;5.30;;
70049;SDS011;57391;51.306;22.680;2022-10-22T00:32:04;10.30;;;4.90;;
70049;SDS011;57391;51.306;22.680;2022-10-22T00:34:32;11.10;;;4.70;;
70049;SDS011;57391;51.306;22.680;2022-10-22T00:36:59;8.60;;;4.30;;
70049;SDS011;57391;51.306;22.680;2022-10-22T00:39:28;9.00;;;4.50;;
70049;SDS011;57391;51.306;22.680;2022-10-22T00:41:57;11.50;;;5.10;;
70049;SDS011;57391;51.306;22.680;2022-10-22T00:47:38;11.40;;;5.20;;
70049;SDS011;57391;51.306;22.680;2022-10-22T00:53:47;11.00;;;5.00;;
70049;SDS011;57391;51.306;22.680;2022-10-22T00:56:17;10.30;;;4.80;;
70049;SDS011;57391;51.306;22.680;2022-10-22T00:58:54;9.60;;;4.80;;
70049;SDS011;57391;51.306;22.680;2022-10-22T01:01:26;10.10;;;4.80;;
70049;SDS011;57391;51.306;22.680;2022-10-22T01:03:55;9.20;;;5.00;;
70049;SDS011;57391;51.306;22.680;2022-10-22T01:06:26;10.00;;;5.30;;
70049;SDS011;57391;51.306;22.680;2022-10-22T01:17:36;10.70;;;5.60;;
70049;SDS011;57391;51.306;22.680;2022-10-22T01:29:56;11.30;;;5.80;;
70049;SDS011;57391;51.306;22.680;2022-10-22T01:32:28;12.10;;;5.00;;
70049;SDS011;57391;51.306;22.680;2022-10-22T01:35:05;11.20;;;5.50;;
70049;SDS011;57391;51.306;22.680;2022-10-22T01:37:44;12.10;;;6.00;;
70049;SDS011;57391;51.306;22.680;2022-10-22T01:40:15;11.00;;;5.30;;
70049;SDS011;57391;51.306;22.680;2022-10-22T01:42:56;9.60;;;5.20;;
70049;SDS011;57391;51.306;22.680;2022-10-22T01:45:39;10.70;;;5.60;;
70049;SDS011;57391;51.306;22.680;2022-10-22T01:48:29;11.00;;;5.10;;
70049;SDS011;57391;51.306;22.680;2022-10-22T01:51:31;8.50;;;4.40;;
70049;SDS011;57391;51.306;22.680;2022-10-22T01:57:33;8.20;;;4.10;;
70049;SDS011;57391;51.306;22.680;2022-10-22T02:00:11;9.30;;;4.50;;
70049;SDS011;57391;51.306;22.680;2022-10-22T02:02:48;8.80;;;4.90;;
70049;SDS011;57391;51.306;22.680;2022-10-22T02:05:42;8.40;;;3.90;;
70049;SDS011;57391;51.306;22.680;2022-10-22T02:08:16;9.90;;;4.20;;
70049;SDS011;57391;51.306;22.680;2022-10-22T02:10:48;10.20;;;4.80;;
70049;SDS011;57391;51.306;22.680;2022-10-22T02:13:46;11.40;;;4.80;;
70049;SDS011;57391;51.306;22.680;2022-10-22T02:16:29;9.20;;;4.70;;
70049;SDS011;57391;51.306;22.680;2022-10-22T02:19:03;8.90;;;4.20;;
70049;SDS011;57391;51.306;22.680;2022-10-22T02:21:41;9.50;;;4.70;;
70049;SDS011;57391;51.306;22.680;2022-10-22T02:24:09;7.90;;;4.10;;
70049;SDS011;57391;51.306;22.680;2022-10-22T02:26:46;8.90;;;4.70;;
70049;SDS011;57391;51.306;22.680;2022-10-22T02:29:38;8.10;;;4.50;;
70049;SDS011;57391;51.306;22.680;2022-10-22T02:32:16;10.90;;;4.70;;
70049;SDS011;57391;51.306;22.680;2022-10-22T02:34:48;7.90;;;4.10;;
70049;SDS011;57391;51.306;22.680;2022-10-22T02:37:17;10.80;;;4.50;;
70049;SDS011;57391;51.306;22.680;2022-10-22T02:39:45;8.50;;;4.30;;
70049;SDS011;57391;51.306;22.680;2022-10-22T02:42:13;8.70;;;4.30;;
70049;SDS011;57391;51.306;22.680;2022-10-22T02:44:41;10.30;;;4.60;;
70049;SDS011;57391;51.306;22.680;2022-10-22T02:47:08;8.00;;;4.30;;
70049;SDS011;57391;51.306;22.680;2022-10-22T02:49:35;8.60;;;4.00;;
70049;SDS011;57391;51.306;22.680;2022-10-22T02:52:02;8.30;;;4.20;;
70049;SDS011;57391;51.306;22.680;2022-10-22T02:54:30;7.70;;;4.10;;
70049;SDS011;57391;51.306;22.680;2022-10-22T02:56:57;8.60;;;4.30;;
70049;SDS011;57391;51.306;22.680;2022-10-22T02:59:24;9.00;;;4.40;;
70049;SDS011;57391;51.306;22.680;2022-10-22T03:01:51;10.30;;;4.40;;
70049;SDS011;57391;51.306;22.680;2022-10-22T03:04:18;9.10;;;4.40;;
70049;SDS011;57391;51.306;22.680;2022-10-22T03:06:45;9.00;;;4.60;;
70049;SDS011;57391;51.306;22.680;2022-10-22T03:09:14;10.10;;;5.20;;
70049;SDS011;57391;51.306;22.680;2022-10-22T03:11:41;9.50;;;4.10;;
70049;SDS011;57391;51.306;22.680;2022-10-22T03:14:08;8.10;;;3.90;;
70049;SDS011;57391;51.306;22.680;2022-10-22T03:16:35;9.10;;;4.40;;
70049;SDS011;57391;51.306;22.680;2022-10-22T03:19:02;9.30;;;4.60;;
70049;SDS011;57391;51.306;22.680;2022-10-22T03:21:51;8.80;;;4.10;;
70049;SDS011;57391;51.306;22.680;2022-10-22T03:24:30;10.40;;;4.40;;
70049;SDS011;57391;51.306;22.680;2022-10-22T03:27:07;9.90;;;4.70;;
70049;SDS011;57391;51.306;22.680;2022-10-22T03:29:36;8.70;;;4.40;;
70049;SDS011;57391;51.306;22.680;2022-10-22T03:32:05;8.40;;;4.10;;
70049;SDS011;57391;51.306;22.680;2022-10-22T03:34:33;10.80;;;4.40;;
70049;SDS011;57391;51.306;22.680;2022-10-22T03:37:00;8.20;;;3.90;;
70049;SDS011;57391;51.306;22.680;2022-10-22T03:39:30;9.10;;;4.30;;
70049;SDS011;57391;51.306;22.680;2022-10-22T03:42:01;7.20;;;3.60;;
70049;SDS011;57391;51.306;22.680;2022-10-22T03:44:29;10.50;;;4.20;;
70049;SDS011;57391;51.306;22.680;2022-10-22T03:46:58;9.20;;;4.30;;
70049;SDS011;57391;51.306;22.680;2022-10-22T03:49:25;9.50;;;4.20;;
70049;SDS011;57391;51.306;22.680;2022-10-22T03:51:52;9.00;;;3.90;;
70049;SDS011;57391;51.306;22.680;2022-10-22T03:54:19;11.80;;;4.20;;
70049;SDS011;57391;51.306;22.680;2022-10-22T03:56:46;8.20;;;3.80;;
70049;SDS011;57391;51.306;22.680;2022-10-22T03:59:13;7.90;;;4.20;;
70049;SDS011;57391;51.306;22.680;2022-10-22T04:01:41;10.50;;;4.00;;
70049;SDS011;57391;51.306;22.680;2022-10-22T04:04:08;7.20;;;4.10;;
70049;SDS011;57391;51.306;22.680;2022-10-22T04:06:35;7.90;;;4.10;;
70049;SDS011;57391;51.306;22.680;2022-10-22T04:09:02;7.60;;;3.80;;
70049;SDS011;57391;51.306;22.680;2022-10-22T04:11:29;6.90;;;3.80;;
70049;SDS011;57391;51.306;22.680;2022-10-22T04:13:56;7.80;;;4.20;;
70049;SDS011;57391;51.306;22.680;2022-10-22T04:16:23;7.60;;;4.10;;
70049;SDS011;57391;51.306;22.680;2022-10-22T04:18:56;8.70;;;3.60;;
70049;SDS011;57391;51.306;22.680;2022-10-22T04:21:24;8.30;;;3.90;;
70049;SDS011;57391;51.306;22.680;2022-10-22T04:23:51;8.80;;;4.00;;
70049;SDS011;57391;51.306;22.680;2022-10-22T04:26:19;8.60;;;3.80;;
70049;SDS011;57391;51.306;22.680;2022-10-22T04:28:48;8.30;;;4.00;;
70049;SDS011;57391;51.306;22.680;2022-10-22T04:31:19;7.20;;;3.90;;
70049;SDS011;57391;51.306;22.680;2022-10-22T04:33:54;9.60;;;4.10;;
70049;SDS011;57391;51.306;22.680;2022-10-22T04:36:22;7.70;;;3.80;;
70049;SDS011;57391;51.306;22.680;2022-10-22T04:38:56;8.90;;;3.90;;
70049;SDS011;57391;51.306;22.680;2022-10-22T04:41:36;8.10;;;4.10;;
70049;SDS011;57391;51.306;22.680;2022-10-22T04:44:05;8.60;;;4.40;;
70049;SDS011;57391;51.306;22.680;2022-10-22T04:46:34;8.30;;;4.10;;
70049;SDS011;57391;51.306;22.680;2022-10-22T04:49:02;7.70;;;3.90;;
70049;SDS011;57391;51.306;22.680;2022-10-22T04:51:30;9.50;;;4.60;;
70049;SDS011;57391;51.306;22.680;2022-10-22T04:53:58;9.00;;;4.10;;
70049;SDS011;57391;51.306;22.680;2022-10-22T04:56:29;7.50;;;4.30;;
70049;SDS011;57391;51.306;22.680;2022-10-22T04:59:03;8.60;;;4.30;;
70049;SDS011;57391;51.306;22.680;2022-10-22T05:01:34;8.90;;;4.80;;
70049;SDS011;57391;51.306;22.680;2022-10-22T05:04:04;8.90;;;4.10;;
70049;SDS011;57391;51.306;22.680;2022-10-22T05:06:35;9.00;;;4.50;;
70049;SDS011;57391;51.306;22.680;2022-10-22T05:09:05;8.50;;;4.10;;
70049;SDS011;57391;51.306;22.680;2022-10-22T05:11:36;9.80;;;4.60;;
70049;SDS011;57391;51.306;22.680;2022-10-22T05:14:21;8.80;;;4.40;;
70049;SDS011;57391;51.306;22.680;2022-10-22T05:16:50;9.50;;;4.50;;
70049;SDS011;57391;51.306;22.680;2022-10-22T05:19:24;8.40;;;4.50;;
70049;SDS011;57391;51.306;22.680;2022-10-22T05:21:55;8.70;;;4.70;;
70049;SDS011;57391;51.306;22.680;2022-10-22T05:24:25;8.00;;;3.70;;
70049;SDS011;57391;51.306;22.680;2022-10-22T05:26:55;11.80;;;4.60;;
70049;SDS011;57391;51.306;22.680;2022-10-22T05:29:23;9.90;;;4.30;;
70049;SDS011;57391;51.306;22.680;2022-10-22T05:31:51;8.60;;;4.50;;
70049;SDS011;57391;51.306;22.680;2022-10-22T05:34:19;9.90;;;5.00;;
70049;SDS011;57391;51.306;22.680;2022-10-22T05:36:46;9.60;;;6.20;;
70049;SDS011;57391;51.306;22.680;2022-10-22T05:39:13;9.40;;;5.30;;
70049;SDS011;57391;51.306;22.680;2022-10-22T05:41:42;10.90;;;5.50;;
70049;SDS011;57391;51.306;22.680;2022-10-22T05:44:10;9.20;;;5.30;;
70049;SDS011;57391;51.306;22.680;2022-10-22T05:46:38;8.40;;;4.60;;
70049;SDS011;57391;51.306;22.680;2022-10-22T05:49:06;9.10;;;5.30;;
70049;SDS011;57391;51.306;22.680;2022-10-22T05:51:35;9.70;;;4.70;;
70049;SDS011;57391;51.306;22.680;2022-10-22T05:54:05;10.00;;;4.80;;
70049;SDS011;57391;51.306;22.680;2022-10-22T05:56:34;9.00;;;4.70;;
70049;SDS011;57391;51.306;22.680;2022-10-22T05:59:03;10.30;;;5.00;;
70049;SDS011;57391;51.306;22.680;2022-10-22T06:01:32;9.00;;;4.30;;
70049;SDS011;57391;51.306;22.680;2022-10-22T06:04:05;8.20;;;4.30;;
70049;SDS011;57391;51.306;22.680;2022-10-22T06:06:42;9.20;;;4.70;;
70049;SDS011;57391;51.306;22.680;2022-10-22T06:09:30;8.70;;;4.70;;
70049;SDS011;57391;51.306;22.680;2022-10-22T06:12:02;9.40;;;5.30;;
70049;SDS011;57391;51.306;22.680;2022-10-22T06:14:29;9.80;;;5.20;;
70049;SDS011;57391;51.306;22.680;2022-10-22T06:16:58;10.60;;;5.00;;
70049;SDS011;57391;51.306;22.680;2022-10-22T06:19:26;9.50;;;4.90;;
70049;SDS011;57391;51.306;22.680;2022-10-22T06:21:55;9.40;;;4.70;;
70049;SDS011;57391;51.306;22.680;2022-10-22T06:24:22;10.70;;;4.60;;
70049;SDS011;57391;51.306;22.680;2022-10-22T06:26:52;9.70;;;4.90;;
70049;SDS011;57391;51.306;22.680;2022-10-22T06:29:19;9.80;;;5.30;;
70049;SDS011;57391;51.306;22.680;2022-10-22T06:31:48;9.40;;;5.00;;
70049;SDS011;57391;51.306;22.680;2022-10-22T06:34:15;9.70;;;4.80;;
70049;SDS011;57391;51.306;22.680;2022-10-22T06:36:46;9.20;;;4.80;;
70049;SDS011;57391;51.306;22.680;2022-10-22T06:39:15;9.00;;;4.60;;
70049;SDS011;57391;51.306;22.680;2022-10-22T06:41:43;9.20;;;4.70;;
70049;SDS011;57391;51.306;22.680;2022-10-22T06:44:14;11.10;;;5.10;;
70049;SDS011;57391;51.306;22.680;2022-10-22T06:46:44;8.90;;;4.90;;
70049;SDS011;57391;51.306;22.680;2022-10-22T06:49:13;8.90;;;4.90;;
70049;SDS011;57391;51.306;22.680;2022-10-22T06:51:42;10.50;;;5.00;;
70049;SDS011;57391;51.306;22.680;2022-10-22T06:54:10;10.90;;;5.30;;
70049;SDS011;57391;51.306;22.680;2022-10-22T06:56:37;10.90;;;5.20;;
70049;SDS011;57391;51.306;22.680;2022-10-22T06:59:04;10.60;;;5.10;;
70049;SDS011;57391;51.306;22.680;2022-10-22T07:01:34;9.00;;;5.40;;
70049;SDS011;57391;51.306;22.680;2022-10-22T07:04:03;9.90;;;5.20;;
70049;SDS011;57391;51.306;22.680;2022-10-22T07:06:31;9.60;;;5.50;;
70049;SDS011;57391;51.306;22.680;2022-10-22T07:08:59;10.40;;;5.50;;
70049;SDS011;57391;51.306;22.680;2022-10-22T07:11:44;10.00;;;5.80;;
70049;SDS011;57391;51.306;22.680;2022-10-22T07:14:12;11.60;;;4.90;;
70049;SDS011;57391;51.306;22.680;2022-10-22T07:16:40;9.20;;;5.30;;
70049;SDS011;57391;51.306;22.680;2022-10-22T07:19:12;10.30;;;5.00;;
70049;SDS011;57391;51.306;22.680;2022-10-22T07:21:40;11.20;;;5.40;;
70049;SDS011;57391;51.306;22.680;2022-10-22T07:24:07;11.80;;;5.40;;
70049;SDS011;57391;51.306;22.680;2022-10-22T07:26:35;13.60;;;6.20;;
70049;SDS011;57391;51.306;22.680;2022-10-22T07:29:03;12.10;;;6.80;;
70049;SDS011;57391;51.306;22.680;2022-10-22T07:31:30;11.20;;;6.10;;
70049;SDS011;57391;51.306;22.680;2022-10-22T07:33:58;14.00;;;6.70;;
70049;SDS011;57391;51.306;22.680;2022-10-22T07:36:25;10.70;;;6.20;;
70049;SDS011;57391;51.306;22.680;2022-10-22T07:38:55;12.80;;;6.90;;
70049;SDS011;57391;51.306;22.680;2022-10-22T07:41:24;12.00;;;5.90;;
70049;SDS011;57391;51.306;22.680;2022-10-22T07:43:52;11.60;;;7.50;;
70049;SDS011;57391;51.306;22.680;2022-10-22T07:46:20;12.40;;;7.00;;
70049;SDS011;57391;51.306;22.680;2022-10-22T07:48:47;13.00;;;6.80;;
70049;SDS011;57391;51.306;22.680;2022-10-22T07:51:14;14.10;;;7.40;;
70049;SDS011;57391;51.306;22.680;2022-10-22T07:53:42;12.80;;;7.10;;
70049;SDS011;57391;51.306;22.680;2022-10-22T07:56:12;16.20;;;7.90;;
70049;SDS011;57391;51.306;22.680;2022-10-22T07:58:39;12.50;;;6.90;;
70049;SDS011;57391;51.306;22.680;2022-10-22T08:01:07;12.00;;;7.00;;
70049;SDS011;57391;51.306;22.680;2022-10-22T08:03:34;12.60;;;7.20;;
70049;SDS011;57391;51.306;22.680;2022-10-22T08:06:01;13.00;;;7.40;;
70049;SDS011;57391;51.306;22.680;2022-10-22T08:08:29;15.30;;;8.00;;
70049;SDS011;57391;51.306;22.680;2022-10-22T08:10:57;12.80;;;6.70;;
70049;SDS011;57391;51.306;22.680;2022-10-22T08:13:27;14.00;;;7.30;;
70049;SDS011;57391;51.306;22.680;2022-10-22T08:15:59;13.10;;;7.60;;
70049;SDS011;57391;51.306;22.680;2022-10-22T08:18:27;13.00;;;7.80;;
70049;SDS011;57391;51.306;22.680;2022-10-22T08:20:56;14.10;;;7.60;;
70049;SDS011;57391;51.306;22.680;2022-10-22T08:23:24;17.90;;;9.60;;
70049;SDS011;57391;51.306;22.680;2022-10-22T08:25:52;18.30;;;9.90;;
70049;SDS011;57391;51.306;22.680;2022-10-22T08:28:19;13.30;;;7.50;;
70049;SDS011;57391;51.306;22.680;2022-10-22T08:30:46;16.40;;;8.50;;
70049;SDS011;57391;51.306;22.680;2022-10-22T08:33:14;14.30;;;7.70;;
70049;SDS011;57391;51.306;22.680;2022-10-22T08:35:41;15.30;;;8.00;;
70049;SDS011;57391;51.306;22.680;2022-10-22T08:38:13;16.70;;;9.00;;
70049;SDS011;57391;51.306;22.680;2022-10-22T08:40:41;13.80;;;7.70;;
70049;SDS011;57391;51.306;22.680;2022-10-22T08:49:02;21.30;;;10.70;;
70049;SDS011;57391;51.306;22.680;2022-10-22T08:51:35;15.50;;;8.30;;
70049;SDS011;57391;51.306;22.680;2022-10-22T08:59:54;15.40;;;8.40;;
70049;SDS011;57391;51.306;22.680;2022-10-22T09:05:18;42.70;;;20.40;;
70049;SDS011;57391;51.306;22.680;2022-10-22T09:07:56;16.60;;;9.80;;
70049;SDS011;57391;51.306;22.680;2022-10-22T09:10:27;23.30;;;12.80;;
70049;SDS011;57391;51.306;22.680;2022-10-22T09:12:56;15.40;;;9.20;;
70049;SDS011;57391;51.306;22.680;2022-10-22T09:15:24;18.40;;;10.50;;
70049;SDS011;57391;51.306;22.680;2022-10-22T09:21:01;15.10;;;8.50;;
70049;SDS011;57391;51.306;22.680;2022-10-22T09:24:03;13.40;;;7.70;;
70049;SDS011;57391;51.306;22.680;2022-10-22T09:26:40;17.60;;;9.10;;
70049;SDS011;57391;51.306;22.680;2022-10-22T09:29:15;13.10;;;8.10;;
70049;SDS011;57391;51.306;22.680;2022-10-22T09:31:46;16.70;;;8.60;;
70049;SDS011;57391;51.306;22.680;2022-10-22T09:34:16;14.10;;;7.80;;
70049;SDS011;57391;51.306;22.680;2022-10-22T09:36:46;14.70;;;7.90;;
70049;SDS011;57391;51.306;22.680;2022-10-22T09:39:25;14.10;;;8.60;;
70049;SDS011;57391;51.306;22.680;2022-10-22T09:41:54;13.90;;;8.20;;
70049;SDS011;57391;51.306;22.680;2022-10-22T09:44:22;15.60;;;8.10;;
70049;SDS011;57391;51.306;22.680;2022-10-22T09:46:50;12.70;;;7.20;;
70049;SDS011;57391;51.306;22.680;2022-10-22T09:49:20;13.70;;;7.80;;
70049;SDS011;57391;51.306;22.680;2022-10-22T09:51:59;13.50;;;8.50;;
70049;SDS011;57391;51.306;22.680;2022-10-22T09:57:04;16.60;;;8.70;;
70049;SDS011;57391;51.306;22.680;2022-10-22T09:59:41;14.70;;;8.60;;
70049;SDS011;57391;51.306;22.680;2022-10-22T10:02:16;14.80;;;8.70;;
70049;SDS011;57391;51.306;22.680;2022-10-22T10:04:48;16.20;;;8.30;;
70049;SDS011;57391;51.306;22.680;2022-10-22T10:07:26;15.50;;;8.70;;
70049;SDS011;57391;51.306;22.680;2022-10-22T10:09:57;16.20;;;8.90;;
70049;SDS011;57391;51.306;22.680;2022-10-22T10:12:43;17.40;;;9.10;;
70049;SDS011;57391;51.306;22.680;2022-10-22T10:15:53;13.90;;;8.80;;
70049;SDS011;57391;51.306;22.680;2022-10-22T10:30:04;16.20;;;8.50;;
70049;SDS011;57391;51.306;22.680;2022-10-22T10:38:32;16.30;;;9.30;;
70049;SDS011;57391;51.306;22.680;2022-10-22T10:44:15;17.00;;;9.80;;
70049;SDS011;57391;51.306;22.680;2022-10-22T10:51:09;18.00;;;9.70;;
70049;SDS011;57391;51.306;22.680;2022-10-22T10:53:51;17.90;;;9.30;;
70049;SDS011;57391;51.306;22.680;2022-10-22T10:56:41;17.30;;;9.50;;
70049;SDS011;57391;51.306;22.680;2022-10-22T10:59:28;15.60;;;9.40;;
70049;SDS011;57391;51.306;22.680;2022-10-22T11:10:51;19.40;;;10.00;;
70049;SDS011;57391;51.306;22.680;2022-10-22T11:13:35;15.70;;;9.50;;
70049;SDS011;57391;51.306;22.680;2022-10-22T11:16:21;17.40;;;9.50;;
70049;SDS011;57391;51.306;22.680;2022-10-22T11:19:06;17.50;;;9.20;;
70049;SDS011;57391;51.306;22.680;2022-10-22T11:21:49;19.30;;;9.90;;
70049;SDS011;57391;51.306;22.680;2022-10-22T11:24:29;18.10;;;9.30;;
70049;SDS011;57391;51.306;22.680;2022-10-22T11:30:15;26.70;;;14.60;;
70049;SDS011;57391;51.306;22.680;2022-10-22T11:32:56;48.40;;;24.10;;
70049;SDS011;57391;51.306;22.680;2022-10-22T11:35:31;24.90;;;13.10;;
70049;SDS011;57391;51.306;22.680;2022-10-22T11:38:03;24.60;;;13.30;;
70049;SDS011;57391;51.306;22.680;2022-10-22T11:40:59;21.70;;;11.50;;
70049;SDS011;57391;51.306;22.680;2022-10-22T11:43:53;17.40;;;10.50;;
70049;SDS011;57391;51.306;22.680;2022-10-22T11:46:37;20.80;;;10.80;;
70049;SDS011;57391;51.306;22.680;2022-10-22T11:49:45;20.50;;;12.70;;
70049;SDS011;57391;51.306;22.680;2022-10-22T11:52:25;19.10;;;12.00;;
70049;SDS011;57391;51.306;22.680;2022-10-22T11:55:43;18.50;;;12.10;;
70049;SDS011;57391;51.306;22.680;2022-10-22T12:03:43;19.50;;;10.60;;
70049;SDS011;57391;51.306;22.680;2022-10-22T12:14:23;44.60;;;23.90;;
70049;SDS011;57391;51.306;22.680;2022-10-22T12:16:57;20.30;;;11.50;;
70049;SDS011;57391;51.306;22.680;2022-10-22T12:19:44;41.10;;;22.10;;
70049;SDS011;57391;51.306;22.680;2022-10-22T12:25:16;37.70;;;20.30;;
70049;SDS011;57391;51.306;22.680;2022-10-22T12:27:53;24.80;;;13.60;;
70049;SDS011;57391;51.306;22.680;2022-10-22T12:30:29;24.10;;;12.20;;
70049;SDS011;57391;51.306;22.680;2022-10-22T12:33:03;20.50;;;11.50;;
70049;SDS011;57391;51.306;22.680;2022-10-22T12:35:44;28.70;;;16.60;;
70049;SDS011;57391;51.306;22.680;2022-10-22T12:38:18;30.50;;;15.30;;
70049;SDS011;57391;51.306;22.680;2022-10-22T12:40:48;22.10;;;13.30;;
70049;SDS011;57391;51.306;22.680;2022-10-22T12:43:37;21.70;;;12.50;;
70049;SDS011;57391;51.306;22.680;2022-10-22T12:46:10;21.60;;;12.90;;
70049;SDS011;57391;51.306;22.680;2022-10-22T12:48:44;24.50;;;13.80;;
70049;SDS011;57391;51.306;22.680;2022-10-22T12:51:15;25.60;;;14.00;;
70049;SDS011;57391;51.306;22.680;2022-10-22T12:53:48;22.10;;;13.20;;
70049;SDS011;57391;51.306;22.680;2022-10-22T12:56:22;25.10;;;13.60;;
70049;SDS011;57391;51.306;22.680;2022-10-22T13:01:38;21.70;;;13.60;;
70049;SDS011;57391;51.306;22.680;2022-10-22T13:12:34;25.70;;;13.60;;
70049;SDS011;57391;51.306;22.680;2022-10-22T13:15:32;26.40;;;13.90;;
70049;SDS011;57391;51.306;22.680;2022-10-22T13:23:31;28.30;;;13.90;;
70049;SDS011;57391;51.306;22.680;2022-10-22T13:26:35;26.90;;;13.80;;
70049;SDS011;57391;51.306;22.680;2022-10-22T13:29:00;28.70;;;14.80;;
70049;SDS011;57391;51.306;22.680;2022-10-22T13:31:35;26.70;;;14.90;;
70049;SDS011;57391;51.306;22.680;2022-10-22T13:34:05;32.20;;;16.40;;
70049;SDS011;57391;51.306;22.680;2022-10-22T13:36:35;25.50;;;13.90;;
70049;SDS011;57391;51.306;22.680;2022-10-22T13:39:05;25.20;;;13.30;;
70049;SDS011;57391;51.306;22.680;2022-10-22T13:41:38;20.80;;;11.20;;
70049;SDS011;57391;51.306;22.680;2022-10-22T13:44:06;19.60;;;10.20;;
70049;SDS011;57391;51.306;22.680;2022-10-22T13:46:36;21.40;;;12.30;;
70049;SDS011;57391;51.306;22.680;2022-10-22T13:49:19;21.10;;;11.30;;
70049;SDS011;57391;51.306;22.680;2022-10-22T13:51:49;20.90;;;12.20;;
70049;SDS011;57391;51.306;22.680;2022-10-22T13:54:23;24.70;;;13.40;;
70049;SDS011;57391;51.306;22.680;2022-10-22T13:56:52;23.60;;;13.20;;
70049;SDS011;57391;51.306;22.680;2022-10-22T13:59:19;28.70;;;15.50;;
70049;SDS011;57391;51.306;22.680;2022-10-22T14:01:46;24.60;;;15.10;;
70049;SDS011;57391;51.306;22.680;2022-10-22T14:04:14;25.40;;;13.80;;
70049;SDS011;57391;51.306;22.680;2022-10-22T14:06:41;23.80;;;13.50;;
70049;SDS011;57391;51.306;22.680;2022-10-22T14:09:12;35.70;;;18.10;;
70049;SDS011;57391;51.306;22.680;2022-10-22T14:11:41;41.70;;;21.20;;
70049;SDS011;57391;51.306;22.680;2022-10-22T14:14:08;56.10;;;28.10;;
70049;SDS011;57391;51.306;22.680;2022-10-22T14:16:39;56.30;;;28.40;;
70049;SDS011;57391;51.306;22.680;2022-10-22T14:19:09;62.70;;;30.40;;
70049;SDS011;57391;51.306;22.680;2022-10-22T14:21:42;52.30;;;26.20;;
70049;SDS011;57391;51.306;22.680;2022-10-22T14:24:10;46.50;;;22.40;;
70049;SDS011;57391;51.306;22.680;2022-10-22T14:26:37;30.50;;;16.40;;
70049;SDS011;57391;51.306;22.680;2022-10-22T14:29:04;28.90;;;16.10;;
70049;SDS011;57391;51.306;22.680;2022-10-22T14:31:32;29.20;;;15.70;;
70049;SDS011;57391;51.306;22.680;2022-10-22T14:33:59;28.40;;;16.10;;
70049;SDS011;57391;51.306;22.680;2022-10-22T14:36:26;30.40;;;16.40;;
70049;SDS011;57391;51.306;22.680;2022-10-22T14:38:53;28.50;;;15.10;;
70049;SDS011;57391;51.306;22.680;2022-10-22T14:41:25;29.70;;;15.40;;
70049;SDS011;57391;51.306;22.680;2022-10-22T14:43:55;28.30;;;14.70;;
70049;SDS011;57391;51.306;22.680;2022-10-22T14:46:22;31.20;;;15.70;;
70049;SDS011;57391;51.306;22.680;2022-10-22T14:48:49;29.80;;;15.50;;
70049;SDS011;57391;51.306;22.680;2022-10-22T14:51:19;27.80;;;15.70;;
70049;SDS011;57391;51.306;22.680;2022-10-22T14:53:47;31.20;;;16.50;;
70049;SDS011;57391;51.306;22.680;2022-10-22T14:56:17;28.10;;;14.20;;
70049;SDS011;57391;51.306;22.680;2022-10-22T14:58:47;28.50;;;15.90;;
70049;SDS011;57391;51.306;22.680;2022-10-22T15:01:15;27.90;;;15.40;;
70049;SDS011;57391;51.306;22.680;2022-10-22T15:03:42;28.10;;;15.00;;
70049;SDS011;57391;51.306;22.680;2022-10-22T15:06:10;25.10;;;13.50;;
70049;SDS011;57391;51.306;22.680;2022-10-22T15:08:37;25.10;;;14.30;;
70049;SDS011;57391;51.306;22.680;2022-10-22T15:11:10;27.80;;;15.30;;
70049;SDS011;57391;51.306;22.680;2022-10-22T15:13:38;30.50;;;15.60;;
70049;SDS011;57391;51.306;22.680;2022-10-22T15:16:09;29.80;;;16.40;;
70049;SDS011;57391;51.306;22.680;2022-10-22T15:18:39;31.30;;;17.10;;
70049;SDS011;57391;51.306;22.680;2022-10-22T15:21:14;28.00;;;15.30;;
70049;SDS011;57391;51.306;22.680;2022-10-22T15:23:42;30.10;;;17.30;;
70049;SDS011;57391;51.306;22.680;2022-10-22T15:26:11;32.90;;;17.10;;
70049;SDS011;57391;51.306;22.680;2022-10-22T15:28:40;25.50;;;14.20;;
70049;SDS011;57391;51.306;22.680;2022-10-22T15:31:11;29.80;;;16.70;;
70049;SDS011;57391;51.306;22.680;2022-10-22T15:33:41;30.50;;;17.40;;
70049;SDS011;57391;51.306;22.680;2022-10-22T15:36:12;32.40;;;16.70;;
70049;SDS011;57391;51.306;22.680;2022-10-22T15:38:41;31.10;;;17.00;;
70049;SDS011;57391;51.306;22.680;2022-10-22T15:41:10;28.10;;;15.50;;
70049;SDS011;57391;51.306;22.680;2022-10-22T15:43:39;27.10;;;16.00;;
70049;SDS011;57391;51.306;22.680;2022-10-22T15:46:15;27.50;;;16.50;;
70049;SDS011;57391;51.306;22.680;2022-10-22T15:48:44;26.90;;;15.90;;
70049;SDS011;57391;51.306;22.680;2022-10-22T15:51:14;25.80;;;15.30;;
70049;SDS011;57391;51.306;22.680;2022-10-22T15:53:52;31.30;;;16.90;;
70049;SDS011;57391;51.306;22.680;2022-10-22T15:56:21;26.70;;;16.60;;
70049;SDS011;57391;51.306;22.680;2022-10-22T15:58:55;28.90;;;16.00;;
70049;SDS011;57391;51.306;22.680;2022-10-22T16:01:24;31.50;;;17.90;;
70049;SDS011;57391;51.306;22.680;2022-10-22T16:03:53;27.70;;;16.80;;
70049;SDS011;57391;51.306;22.680;2022-10-22T16:06:33;28.80;;;16.30;;
70049;SDS011;57391;51.306;22.680;2022-10-22T16:09:06;29.20;;;17.30;;
70049;SDS011;57391;51.306;22.680;2022-10-22T16:11:36;29.30;;;16.80;;
70049;SDS011;57391;51.306;22.680;2022-10-22T16:14:06;28.20;;;16.20;;
70049;SDS011;57391;51.306;22.680;2022-10-22T16:16:35;30.60;;;15.80;;
70049;SDS011;57391;51.306;22.680;2022-10-22T16:19:02;33.20;;;18.10;;
70049;SDS011;57391;51.306;22.680;2022-10-22T16:21:30;31.90;;;17.90;;
70049;SDS011;57391;51.306;22.680;2022-10-22T16:23:59;31.70;;;19.30;;
70049;SDS011;57391;51.306;22.680;2022-10-22T16:26:27;29.50;;;17.00;;
70049;SDS011;57391;51.306;22.680;2022-10-22T16:28:54;32.10;;;18.00;;
70049;SDS011;57391;51.306;22.680;2022-10-22T16:31:21;33.20;;;18.40;;
70049;SDS011;57391;51.306;22.680;2022-10-22T16:33:49;31.50;;;17.00;;
70049;SDS011;57391;51.306;22.680;2022-10-22T16:36:18;33.10;;;19.00;;
70049;SDS011;57391;51.306;22.680;2022-10-22T16:38:47;29.50;;;16.80;;
70049;SDS011;57391;51.306;22.680;2022-10-22T16:43:45;28.80;;;14.90;;
70049;SDS011;57391;51.306;22.680;2022-10-22T16:46:18;31.70;;;17.60;;
70049;SDS011;57391;51.306;22.680;2022-10-22T16:48:48;32.90;;;18.60;;